Mayo, South Carolina
Current Conditions -  °F | °C
As of 7:55 PM on Friday 31 Oct 2014 (Local Time) from KSPA Reporting Station
Scattered Clouds Scattered Clouds  
Wind Chill: 57°   Ceiling: Unl
Heat Index: 57°   Visibility: 10mi
Dew Point: 46°   Wind: 7mph
Humidity: 67%   Direction: 340°NNW
Pressure: 29.79"   Gusts: NA
Location:  35.08°N, 81.86°W
Report Text: KSPA 312355Z AUTO 34006KT 10SM SCT060 14/08 A2979 RMK AO2 LTG DSNT NE AND E
Loading
Personal Weather Stations






























Interactive Weather Map
Tropical Storm Tracking
New forecast layout! Learn more

10-Day Weather Forecast

Advertisements
Track Severe Weather on mobile